Time;durP1;ratioP1;P1;durP2;ratioP2;P2;SDS_P1;SDS_P2;PMS_P1;PMS_P2;Temp;Humidity;BMP_temperature;BMP_pressure;BME280_temperature;BME280_humidity;BME280_pressure;Samples;Min_cycle;Max_cycle;Signal;HPM_P1;HPM_P2
2023/03/08 00:00:16;;;;;;;50.28;32.40;;;;;;;;;;5029882;28;20043;-38
2023/03/08 00:02:41;;;;;;;52.90;32.35;;;;;;;;;;5030607;28;20037;-37
2023/03/08 00:05:13;;;;;;;59.40;33.38;;;;;;;;;;5033844;28;20028;-37
2023/03/08 00:07:38;;;;;;;48.88;31.58;;;;;;;;;;5031431;28;20167;-37
2023/03/08 00:10:04;;;;;;;47.40;29.33;;;;;;;;;;5050554;28;20171;-37
2023/03/08 00:12:30;;;;;;;51.22;31.90;;;;;;;;;;5032817;28;20116;-37
2023/03/08 00:14:55;;;;;;;42.50;30.50;;;;;;;;;;5032916;28;20447;-40
2023/03/08 00:17:26;;;;;;;47.90;30.35;;;;;;;;;;5032152;28;20041;-38
2023/03/08 00:19:52;;;;;;;45.38;29.90;;;;;;;;;;5028294;28;20070;-37
2023/03/08 00:22:17;;;;;;;47.83;29.33;;;;;;;;;;5029844;28;20507;-38
2023/03/08 00:24:43;;;;;;;46.67;28.42;;;;;;;;;;5033648;28;20036;-37
2023/03/08 00:27:08;;;;;;;38.83;26.65;;;;;;;;;;5037796;28;20451;-38
2023/03/08 00:29:36;;;;;;;40.05;27.42;;;;;;;;;;5037143;28;20051;-38
2023/03/08 00:32:02;;;;;;;44.15;28.17;;;;;;;;;;5031590;28;20140;-37
2023/03/08 00:34:27;;;;;;;41.70;26.77;;;;;;;;;;5034868;28;20129;-37
2023/03/08 00:36:53;;;;;;;42.22;28.33;;;;;;;;;;5033113;28;20401;-37
2023/03/08 00:39:18;;;;;;;46.75;28.95;;;;;;;;;;5029715;28;20030;-38
2023/03/08 00:41:49;;;;;;;41.63;27.15;;;;;;;;;;5033936;28;20072;-38
2023/03/08 00:44:14;;;;;;;54.20;32.53;;;;;;;;;;5034519;28;20034;-37
2023/03/08 00:46:40;;;;;;;57.17;33.33;;;;;;;;;;5033252;28;20041;-37
2023/03/08 00:49:09;;;;;;;47.50;30.73;;;;;;;;;;5036100;28;20057;-37
2023/03/08 00:51:34;;;;;;;54.03;33.85;;;;;;;;;;5033848;28;20072;-37
2023/03/08 00:54:02;;;;;;;54.03;33.00;;;;;;;;;;5032355;28;20060;-37
2023/03/08 00:56:28;;;;;;;50.10;31.27;;;;;;;;;;5031264;28;20147;-37
2023/03/08 00:58:53;;;;;;;51.25;30.35;;;;;;;;;;5031546;28;20037;-37
2023/03/08 01:01:19;;;;;;;54.88;32.15;;;;;;;;;;5031417;28;20053;-38
2023/03/08 01:03:44;;;;;;;50.10;31.02;;;;;;;;;;5035884;28;20041;-38
2023/03/08 01:06:18;;;;;;;51.78;31.25;;;;;;;;;;5034671;28;20032;-38
2023/03/08 01:08:44;;;;;;;68.05;36.10;;;;;;;;;;5028654;28;20469;-37
2023/03/08 01:11:25;;;;;;;55.90;32.40;;;;;;;;;;5030125;28;20021;-37
2023/03/08 01:13:52;;;;;;;51.83;31.60;;;;;;;;;;5033279;28;20053;-37
2023/03/08 01:16:29;;;;;;;60.25;37.30;;;;;;;;;;5026459;28;20111;-37
2023/03/08 01:18:55;;;;;;;59.50;36.08;;;;;;;;;;5033985;28;20114;-37
2023/03/08 01:21:22;;;;;;;61.30;38.17;;;;;;;;;;5031219;28;20040;-37
2023/03/08 01:23:47;;;;;;;54.22;35.08;;;;;;;;;;5034379;28;20029;-37
2023/03/08 01:26:15;;;;;;;58.55;34.63;;;;;;;;;;5031110;28;20036;-37
2023/03/08 01:28:42;;;;;;;56.30;33.22;;;;;;;;;;5039211;28;20394;-37
2023/03/08 01:31:11;;;;;;;55.40;34.83;;;;;;;;;;5040301;28;20029;-37
2023/03/08 01:33:46;;;;;;;63.92;35.15;;;;;;;;;;5040691;28;20079;-38
2023/03/08 01:36:14;;;;;;;49.13;31.98;;;;;;;;;;5034670;28;20029;-40
2023/03/08 01:38:39;;;;;;;51.38;31.75;;;;;;;;;;5034984;28;20436;-37
2023/03/08 01:41:06;;;;;;;51.88;30.83;;;;;;;;;;5038831;28;20024;-39
2023/03/08 01:43:37;;;;;;;47.45;30.52;;;;;;;;;;5042736;28;20048;-37
2023/03/08 01:46:25;;;;;;;45.78;31.17;;;;;;;;;;5037896;28;20039;-38
2023/03/08 01:49:26;;;;;;;52.85;31.50;;;;;;;;;;5041080;28;20118;-37
2023/03/08 01:52:06;;;;;;;48.20;31.75;;;;;;;;;;5033211;28;20089;-37
2023/03/08 01:54:35;;;;;;;52.72;32.45;;;;;;;;;;5042757;28;20048;-37
2023/03/08 01:57:22;;;;;;;51.38;31.55;;;;;;;;;;5042624;28;20026;-39
2023/03/08 01:59:50;;;;;;;53.50;32.85;;;;;;;;;;5041294;28;20082;-37
2023/03/08 02:02:36;;;;;;;47.80;30.88;;;;;;;;;;5045513;28;20065;-37
2023/03/08 02:05:02;;;;;;;49.85;30.08;;;;;;;;;;5038298;28;20422;-37
2023/03/08 02:07:27;;;;;;;57.08;33.50;;;;;;;;;;5039373;28;20040;-38
2023/03/08 02:09:53;;;;;;;52.28;32.83;;;;;;;;;;5036060;28;20113;-37
2023/03/08 02:12:20;;;;;;;52.13;31.13;;;;;;;;;;5039017;28;20064;-37
2023/03/08 02:14:45;;;;;;;53.25;33.25;;;;;;;;;;5038038;28;20028;-38
2023/03/08 02:17:11;;;;;;;45.05;29.35;;;;;;;;;;5036544;28;20389;-37
2023/03/08 02:20:06;;;;;;;48.53;31.10;;;;;;;;;;5040682;28;20034;-37
2023/03/08 02:22:46;;;;;;;62.22;33.40;;;;;;;;;;5034586;28;20045;-37
2023/03/08 02:25:17;;;;;;;48.22;29.13;;;;;;;;;;5038122;28;21008;-37
2023/03/08 02:27:50;;;;;;;49.90;30.20;;;;;;;;;;5039084;28;20520;-37
2023/03/08 02:30:24;;;;;;;40.85;26.88;;;;;;;;;;5035723;28;20104;-37
2023/03/08 02:32:56;;;;;;;41.33;25.80;;;;;;;;;;5034199;28;20044;-38
2023/03/08 02:35:21;;;;;;;42.53;26.93;;;;;;;;;;5045490;28;21367;-38
2023/03/08 02:37:52;;;;;;;44.00;29.48;;;;;;;;;;5040310;28;20435;-37
2023/03/08 02:40:18;;;;;;;48.17;29.40;;;;;;;;;;5036082;28;20116;-38
2023/03/08 02:42:43;;;;;;;55.85;32.72;;;;;;;;;;5036768;28;20125;-38
2023/03/08 02:45:09;;;;;;;72.85;38.78;;;;;;;;;;5039944;28;20061;-37
2023/03/08 02:47:34;;;;;;;42.38;28.35;;;;;;;;;;5037547;28;20406;-37
2023/03/08 02:50:00;;;;;;;48.97;30.75;;;;;;;;;;5034511;28;20040;-37
2023/03/08 02:52:25;;;;;;;56.33;28.80;;;;;;;;;;5032014;28;20037;-37
2023/03/08 02:54:52;;;;;;;39.72;26.83;;;;;;;;;;5040476;28;20052;-37
2023/03/08 02:57:23;;;;;;;49.42;27.55;;;;;;;;;;5033429;28;20128;-38
2023/03/08 02:59:49;;;;;;;40.33;27.02;;;;;;;;;;5032929;28;20037;-38
2023/03/08 03:02:14;;;;;;;39.83;26.67;;;;;;;;;;5034933;28;20030;-38
2023/03/08 03:04:39;;;;;;;43.95;25.85;;;;;;;;;;5034992;28;20033;-38
2023/03/08 03:07:05;;;;;;;40.92;26.25;;;;;;;;;;5037756;28;20038;-38
2023/03/08 03:09:39;;;;;;;55.00;30.55;;;;;;;;;;5030435;28;20021;-38
2023/03/08 03:12:05;;;;;;;45.33;28.67;;;;;;;;;;5030708;28;20393;-38
2023/03/08 03:14:30;;;;;;;38.60;24.65;;;;;;;;;;5035967;28;20030;-37
2023/03/08 03:16:57;;;;;;;44.13;25.52;;;;;;;;;;5032210;28;20041;-38
2023/03/08 03:19:23;;;;;;;42.72;27.00;;;;;;;;;;5037396;28;20033;-41
2023/03/08 03:21:51;;;;;;;37.67;25.20;;;;;;;;;;5035584;28;20049;-41
2023/03/08 03:24:16;;;;;;;44.53;27.02;;;;;;;;;;5036829;28;20030;-37
2023/03/08 03:26:41;;;;;;;43.63;26.60;;;;;;;;;;5032741;28;20037;-37
2023/03/08 03:29:07;;;;;;;41.85;25.35;;;;;;;;;;5037022;28;20040;-37
2023/03/08 03:31:33;;;;;;;38.40;24.33;;;;;;;;;;5031110;28;20045;-37
2023/03/08 03:34:04;;;;;;;40.13;25.50;;;;;;;;;;5036478;28;20037;-37
2023/03/08 03:36:30;;;;;;;37.33;25.23;;;;;;;;;;5032522;28;20124;-37
2023/03/08 03:38:55;;;;;;;42.97;27.20;;;;;;;;;;5031116;28;20439;-37
2023/03/08 03:41:22;;;;;;;41.97;24.02;;;;;;;;;;5036707;28;20044;-37
2023/03/08 03:43:53;;;;;;;38.28;24.75;;;;;;;;;;5032110;28;20494;-37
2023/03/08 03:46:20;;;;;;;34.40;24.57;;;;;;;;;;5031065;28;20074;-37
2023/03/08 03:48:57;;;;;;;37.28;23.95;;;;;;;;;;5034399;28;20034;-38
2023/03/08 03:51:23;;;;;;;39.95;24.08;;;;;;;;;;5032879;28;20439;-38
2023/03/08 03:53:57;;;;;;;39.95;22.80;;;;;;;;;;5034547;28;20076;-39
2023/03/08 03:56:26;;;;;;;37.78;23.70;;;;;;;;;;5033776;28;20083;-38
2023/03/08 03:58:52;;;;;;;40.65;23.65;;;;;;;;;;5031898;28;20036;-39
2023/03/08 04:01:27;;;;;;;39.20;24.08;;;;;;;;;;5027195;28;20140;-39
2023/03/08 04:03:53;;;;;;;31.48;21.98;;;;;;;;;;5031633;28;20124;-38
2023/03/08 04:06:22;;;;;;;36.65;23.40;;;;;;;;;;5029992;28;20519;-37
2023/03/08 04:08:48;;;;;;;36.92;22.75;;;;;;;;;;5032199;28;20025;-37
2023/03/08 04:11:19;;;;;;;39.83;23.35;;;;;;;;;;5024995;28;20556;-40
2023/03/08 04:13:47;;;;;;;41.25;25.58;;;;;;;;;;5026498;28;20072;-37
2023/03/08 04:16:14;;;;;;;37.58;25.17;;;;;;;;;;5030228;28;20038;-37
2023/03/08 04:18:40;;;;;;;38.38;25.10;;;;;;;;;;5034092;28;20064;-37
2023/03/08 04:21:06;;;;;;;38.65;25.90;;;;;;;;;;5027996;28;20052;-38
2023/03/08 04:23:31;;;;;;;39.30;26.67;;;;;;;;;;5034866;28;20557;-37
2023/03/08 04:26:04;;;;;;;43.30;25.83;;;;;;;;;;5031146;28;20406;-38
2023/03/08 04:28:29;;;;;;;41.83;26.33;;;;;;;;;;5046108;28;20383;-37
2023/03/08 04:30:56;;;;;;;43.63;25.95;;;;;;;;;;5030313;28;20048;-36
2023/03/08 04:33:21;;;;;;;36.88;25.25;;;;;;;;;;5036107;28;20111;-37
2023/03/08 04:35:47;;;;;;;40.88;26.13;;;;;;;;;;5034491;28;20115;-37
2023/03/08 04:38:16;;;;;;;39.33;25.90;;;;;;;;;;5040724;28;20037;-40
2023/03/08 04:43:35;;;;;;;38.30;26.75;;;;;;;;;;5032528;28;20043;-38
2023/03/08 04:46:02;;;;;;;43.92;26.50;;;;;;;;;;5034750;28;20032;-37
2023/03/08 04:48:28;;;;;;;40.65;26.15;;;;;;;;;;5029446;28;20030;-38
2023/03/08 04:50:55;;;;;;;39.40;25.90;;;;;;;;;;5030105;28;20044;-38
2023/03/08 04:53:28;;;;;;;36.35;24.10;;;;;;;;;;5033253;28;20041;-37
2023/03/08 04:55:54;;;;;;;39.75;25.20;;;;;;;;;;5036499;28;20027;-38
2023/03/08 04:58:20;;;;;;;35.53;24.15;;;;;;;;;;5037523;28;20064;-38
2023/03/08 05:00:49;;;;;;;36.08;24.38;;;;;;;;;;5028797;28;20041;-37
2023/03/08 05:03:15;;;;;;;39.08;24.98;;;;;;;;;;5032001;28;20375;-38
2023/03/08 05:05:48;;;;;;;35.55;23.73;;;;;;;;;;5028662;28;20044;-38
2023/03/08 05:08:14;;;;;;;36.83;24.75;;;;;;;;;;5034570;28;20044;-37
2023/03/08 05:10:52;;;;;;;32.83;22.27;;;;;;;;;;5032378;28;20033;-37
2023/03/08 05:13:17;;;;;;;33.75;22.80;;;;;;;;;;5023503;28;20141;-37
2023/03/08 05:15:43;;;;;;;32.65;22.65;;;;;;;;;;5034261;28;20117;-37
2023/03/08 05:18:08;;;;;;;33.17;22.17;;;;;;;;;;5033871;28;20048;-37
2023/03/08 05:20:34;;;;;;;34.80;21.63;;;;;;;;;;5031973;28;20914;-37
2023/03/08 05:23:09;;;;;;;29.80;21.58;;;;;;;;;;5026569;28;20098;-38
2023/03/08 05:25:41;;;;;;;35.35;21.85;;;;;;;;;;5033202;28;20508;-37
2023/03/08 05:28:07;;;;;;;33.28;21.75;;;;;;;;;;5028133;28;20045;-37
2023/03/08 05:30:32;;;;;;;31.98;20.48;;;;;;;;;;5031120;28;20033;-37
2023/03/08 05:32:58;;;;;;;29.30;20.98;;;;;;;;;;5029364;28;20119;-37
2023/03/08 05:35:23;;;;;;;28.33;20.52;;;;;;;;;;5036385;28;20033;-37
2023/03/08 05:37:48;;;;;;;31.60;21.00;;;;;;;;;;5034327;28;20044;-38
2023/03/08 05:40:14;;;;;;;30.15;19.33;;;;;;;;;;5033465;28;20029;-37
2023/03/08 05:42:39;;;;;;;31.33;20.95;;;;;;;;;;5036107;28;20456;-38
2023/03/08 05:45:05;;;;;;;32.22;21.88;;;;;;;;;;5035887;28;20036;-38
2023/03/08 05:47:34;;;;;;;32.70;22.65;;;;;;;;;;5036661;28;21262;-38
2023/03/08 05:49:59;;;;;;;35.28;22.45;;;;;;;;;;5033710;28;20059;-38
2023/03/08 05:52:24;;;;;;;33.53;23.20;;;;;;;;;;5031491;28;20533;-37
2023/03/08 05:54:50;;;;;;;30.55;21.67;;;;;;;;;;5023858;28;20018;-38
2023/03/08 05:57:15;;;;;;;28.77;20.27;;;;;;;;;;5029257;28;20029;-38
2023/03/08 05:59:40;;;;;;;35.83;23.35;;;;;;;;;;5029508;28;20074;-38
2023/03/08 06:02:06;;;;;;;34.25;22.20;;;;;;;;;;5029902;28;20482;-37
2023/03/08 06:04:31;;;;;;;32.65;21.98;;;;;;;;;;5022445;28;20021;-38
2023/03/08 06:06:57;;;;;;;34.53;22.63;;;;;;;;;;5014919;28;20048;-38
2023/03/08 06:09:22;;;;;;;36.78;22.88;;;;;;;;;;5014557;28;20030;-39
2023/03/08 06:11:50;;;;;;;34.05;22.70;;;;;;;;;;5015902;28;20130;-38
2023/03/08 06:14:16;;;;;;;30.33;20.40;;;;;;;;;;5026013;28;20516;-38
2023/03/08 06:16:41;;;;;;;34.85;22.73;;;;;;;;;;5025476;28;20072;-38
2023/03/08 06:19:14;;;;;;;32.55;21.70;;;;;;;;;;5020428;28;20034;-38
2023/03/08 06:21:39;;;;;;;30.90;20.90;;;;;;;;;;5028099;28;20544;-38
2023/03/08 06:24:05;;;;;;;31.08;20.63;;;;;;;;;;5027345;28;20120;-39
2023/03/08 06:26:36;;;;;;;35.10;21.05;;;;;;;;;;5027918;28;20045;-38
2023/03/08 06:29:07;;;;;;;36.15;23.05;;;;;;;;;;5028207;28;20125;-38
2023/03/08 06:31:35;;;;;;;37.43;24.20;;;;;;;;;;5037008;28;20068;-38
2023/03/08 06:34:01;;;;;;;38.90;25.05;;;;;;;;;;5037664;28;20026;-38
2023/03/08 06:36:32;;;;;;;35.55;23.67;;;;;;;;;;5030037;28;20548;-39
2023/03/08 06:38:58;;;;;;;36.40;23.53;;;;;;;;;;5036613;28;20121;-38
2023/03/08 06:41:24;;;;;;;36.03;23.90;;;;;;;;;;5036373;28;20839;-39
2023/03/08 06:43:52;;;;;;;34.97;22.33;;;;;;;;;;5022817;28;20021;-38
2023/03/08 06:46:19;;;;;;;35.22;22.48;;;;;;;;;;5019512;28;20662;-39
2023/03/08 06:48:45;;;;;;;35.08;24.23;;;;;;;;;;5026440;28;20591;-40
2023/03/08 06:51:11;;;;;;;38.78;24.80;;;;;;;;;;5032317;28;20033;-40
2023/03/08 06:53:39;;;;;;;42.13;23.77;;;;;;;;;;5036907;28;20031;-38
2023/03/08 06:56:07;;;;;;;34.15;24.25;;;;;;;;;;5025290;28;20034;-38
2023/03/08 06:58:34;;;;;;;40.03;23.90;;;;;;;;;;5030566;28;20025;-39
2023/03/08 07:00:59;;;;;;;34.28;24.00;;;;;;;;;;5019946;28;20124;-38
2023/03/08 07:03:26;;;;;;;33.05;23.77;;;;;;;;;;5029965;28;20104;-38
2023/03/08 07:06:08;;;;;;;43.00;24.42;;;;;;;;;;5028664;28;20034;-38
2023/03/08 07:08:35;;;;;;;34.33;22.80;;;;;;;;;;5032113;28;20046;-38
2023/03/08 07:11:10;;;;;;;32.58;22.80;;;;;;;;;;5026492;28;20033;-38
2023/03/08 07:13:36;;;;;;;38.55;22.92;;;;;;;;;;5026016;28;20150;-38
2023/03/08 07:16:19;;;;;;;35.80;24.25;;;;;;;;;;5033120;28;20072;-39
2023/03/08 07:18:45;;;;;;;32.47;22.20;;;;;;;;;;5024944;28;20046;-38
2023/03/08 07:21:11;;;;;;;35.08;23.50;;;;;;;;;;5029612;28;20437;-39
2023/03/08 07:23:39;;;;;;;36.55;23.80;;;;;;;;;;5033587;28;20025;-39
2023/03/08 07:26:06;;;;;;;36.33;23.77;;;;;;;;;;5024946;28;20029;-39
2023/03/08 07:28:34;;;;;;;34.63;22.95;;;;;;;;;;5027220;28;20072;-39
2023/03/08 07:31:00;;;;;;;35.40;23.45;;;;;;;;;;5023542;28;20036;-38
2023/03/08 07:33:38;;;;;;;37.67;23.80;;;;;;;;;;5028079;28;20025;-39
2023/03/08 07:36:03;;;;;;;36.45;23.60;;;;;;;;;;5029879;28;20606;-38
2023/03/08 07:38:29;;;;;;;37.20;24.60;;;;;;;;;;5035572;28;20112;-39
2023/03/08 07:40:55;;;;;;;34.92;22.92;;;;;;;;;;5037500;28;20354;-40
2023/03/08 07:43:21;;;;;;;42.22;26.00;;;;;;;;;;5035454;28;20378;-39
2023/03/08 07:45:49;;;;;;;37.80;23.65;;;;;;;;;;5031533;28;20032;-38
2023/03/08 07:48:15;;;;;;;30.90;20.23;;;;;;;;;;5035277;28;20037;-38
2023/03/08 07:50:40;;;;;;;29.38;20.00;;;;;;;;;;5034555;28;20032;-38
2023/03/08 07:53:14;;;;;;;29.98;20.88;;;;;;;;;;5018196;28;20044;-39
2023/03/08 07:55:45;;;;;;;28.48;20.38;;;;;;;;;;5031036;28;20116;-39
2023/03/08 07:58:11;;;;;;;27.40;19.88;;;;;;;;;;5018823;28;20103;-39
2023/03/08 08:00:36;;;;;;;23.13;17.52;;;;;;;;;;5031174;28;20044;-38
2023/03/08 08:03:07;;;;;;;22.05;17.95;;;;;;;;;;5031507;28;20072;-39
2023/03/08 08:05:34;;;;;;;26.37;20.30;;;;;;;;;;5038286;28;20032;-39
2023/03/08 08:08:00;;;;;;;35.20;22.80;;;;;;;;;;5034570;28;20516;-38
2023/03/08 08:10:25;;;;;;;31.17;24.58;;;;;;;;;;5031066;28;20021;-39
2023/03/08 08:12:51;;;;;;;21.30;15.43;;;;;;;;;;5034936;28;20033;-38
2023/03/08 08:15:25;;;;;;;22.05;14.98;;;;;;;;;;5030504;28;20584;-38
2023/03/08 08:17:51;;;;;;;19.08;15.15;;;;;;;;;;5032475;28;20049;-39
2023/03/08 08:20:17;;;;;;;17.25;14.30;;;;;;;;;;5024721;28;20382;-39
2023/03/08 08:22:42;;;;;;;17.95;13.63;;;;;;;;;;5029248;28;20079;-39
2023/03/08 08:25:08;;;;;;;14.48;10.93;;;;;;;;;;5029970;28;20074;-39
2023/03/08 08:27:43;;;;;;;16.95;11.05;;;;;;;;;;5026278;28;20411;-39
2023/03/08 08:30:11;;;;;;;14.93;10.07;;;;;;;;;;5033914;28;20029;-39
2023/03/08 08:32:46;;;;;;;17.25;10.38;;;;;;;;;;5034142;28;20082;-39
2023/03/08 08:35:11;;;;;;;12.82;9.88;;;;;;;;;;5033960;28;20032;-39
2023/03/08 08:37:37;;;;;;;13.45;11.15;;;;;;;;;;5031923;28;20098;-37
2023/03/08 08:40:06;;;;;;;15.75;10.52;;;;;;;;;;5024268;28;20273;-37
2023/03/08 08:42:32;;;;;;;18.33;11.88;;;;;;;;;;5032386;28;20040;-38
2023/03/08 08:44:57;;;;;;;16.40;10.40;;;;;;;;;;5033855;28;20968;-38
2023/03/08 08:47:23;;;;;;;19.20;11.30;;;;;;;;;;5033802;28;20082;-37
2023/03/08 08:49:56;;;;;;;12.60;9.68;;;;;;;;;;5034760;28;20503;-38
2023/03/08 08:52:22;;;;;;;15.60;10.60;;;;;;;;;;5033640;28;20132;-39
2023/03/08 08:54:47;;;;;;;16.23;9.90;;;;;;;;;;5030770;28;20100;-40
2023/03/08 08:57:12;;;;;;;9.57;8.13;;;;;;;;;;5028513;28;20045;-39
2023/03/08 08:59:47;;;;;;;13.48;10.38;;;;;;;;;;5026639;28;20037;-39
2023/03/08 09:02:19;;;;;;;14.52;9.02;;;;;;;;;;5029485;28;20087;-38
2023/03/08 09:04:44;;;;;;;8.88;6.93;;;;;;;;;;5030161;28;20087;-38
2023/03/08 09:07:10;;;;;;;13.70;9.18;;;;;;;;;;5034425;28;20041;-38
2023/03/08 09:09:35;;;;;;;19.27;10.35;;;;;;;;;;5036681;28;20060;-38
2023/03/08 09:12:00;;;;;;;17.77;11.63;;;;;;;;;;5031959;28;20036;-39
2023/03/08 09:14:33;;;;;;;9.98;8.32;;;;;;;;;;5034891;28;20466;-39
2023/03/08 09:16:59;;;;;;;5.15;4.65;;;;;;;;;;5025619;28;20049;-39
2023/03/08 09:19:24;;;;;;;5.55;4.68;;;;;;;;;;5030654;28;20080;-39
2023/03/08 09:21:55;;;;;;;9.85;3.55;;;;;;;;;;5029975;28;20037;-39
2023/03/08 09:24:21;;;;;;;10.27;8.05;;;;;;;;;;5021316;28;20108;-38
2023/03/08 09:26:49;;;;;;;4.45;4.03;;;;;;;;;;5022943;28;20243;-38
2023/03/08 09:29:14;;;;;;;6.63;4.55;;;;;;;;;;5029214;28;20052;-38
2023/03/08 09:31:42;;;;;;;5.68;4.57;;;;;;;;;;5031397;28;20042;-38
2023/03/08 09:34:10;;;;;;;6.30;4.82;;;;;;;;;;5024621;28;20029;-38
2023/03/08 09:36:38;;;;;;;32.00;10.45;;;;;;;;;;5027754;28;20068;-38
2023/03/08 09:39:04;;;;;;;22.83;13.45;;;;;;;;;;5029661;28;20048;-39
2023/03/08 09:41:44;;;;;;;25.55;14.82;;;;;;;;;;5029452;28;20463;-38
2023/03/08 09:44:24;;;;;;;24.65;15.52;;;;;;;;;;5024658;28;20472;-39
2023/03/08 09:47:18;;;;;;;26.92;16.40;;;;;;;;;;5028853;28;20045;-38
2023/03/08 09:49:58;;;;;;;25.65;16.73;;;;;;;;;;5007917;28;20033;-38
2023/03/08 09:52:32;;;;;;;23.67;14.75;;;;;;;;;;5006592;28;20172;-39
2023/03/08 09:54:59;;;;;;;26.83;16.63;;;;;;;;;;5004385;28;20049;-38
2023/03/08 09:57:44;;;;;;;23.73;14.38;;;;;;;;;;5005922;28;20046;-38
2023/03/08 10:00:19;;;;;;;20.08;14.75;;;;;;;;;;5005940;28;20053;-39
2023/03/08 10:02:55;;;;;;;20.60;13.48;;;;;;;;;;5006457;28;20049;-38
2023/03/08 10:05:52;;;;;;;22.33;13.32;;;;;;;;;;5003084;28;20042;-38
2023/03/08 10:08:32;;;;;;;21.13;14.45;;;;;;;;;;5003816;28;20042;-39
2023/03/08 10:11:02;;;;;;;20.70;15.00;;;;;;;;;;5005992;28;20406;-38
2023/03/08 10:13:39;;;;;;;22.58;15.50;;;;;;;;;;5005081;28;20057;-38
2023/03/08 10:16:23;;;;;;;30.08;16.33;;;;;;;;;;5003125;28;20101;-39
2023/03/08 10:18:53;;;;;;;17.77;13.98;;;;;;;;;;5005424;28;20490;-39
2023/03/08 10:21:21;;;;;;;30.65;15.57;;;;;;;;;;5003689;28;20060;-38
2023/03/08 10:24:34;;;;;;;26.02;15.50;;;;;;;;;;5006074;28;20486;-38
2023/03/08 10:27:05;;;;;;;;;;;;;;;;;;5019149;28;20053;-38
2023/03/08 10:29:30;;;;;;;21.10;14.80;;;;;;;;;;5034843;28;19920;-38
2023/03/08 10:31:56;;;;;;;27.88;16.20;;;;;;;;;;5030237;28;20033;-38
2023/03/08 10:34:31;;;;;;;25.85;15.45;;;;;;;;;;5035548;28;20116;-38
2023/03/08 10:37:08;;;;;;;25.38;14.90;;;;;;;;;;5035060;28;20041;-39
2023/03/08 10:39:53;;;;;;;21.70;14.00;;;;;;;;;;5037844;28;20039;-38
2023/03/08 10:42:30;;;;;;;21.63;14.15;;;;;;;;;;5030479;28;20057;-39
2023/03/08 10:45:11;;;;;;;21.65;13.15;;;;;;;;;;5035166;28;20033;-38
2023/03/08 10:47:37;;;;;;;23.10;13.95;;;;;;;;;;5030791;28;21054;-38
2023/03/08 10:50:19;;;;;;;19.70;12.80;;;;;;;;;;5033914;28;20407;-38
2023/03/08 10:52:46;;;;;;;16.95;10.30;;;;;;;;;;5029117;28;20045;-39
2023/03/08 10:55:30;;;;;;;21.95;10.18;;;;;;;;;;5028497;28;20551;-39
2023/03/08 10:57:59;;;;;;;9.52;7.03;;;;;;;;;;5028268;28;20037;-39
2023/03/08 11:00:36;;;;;;;11.65;7.47;;;;;;;;;;5032045;28;20028;-38
2023/03/08 11:03:22;;;;;;;13.25;8.45;;;;;;;;;;5033589;28;20037;-38
2023/03/08 11:06:03;;;;;;;9.77;6.32;;;;;;;;;;5028318;28;21107;-39
2023/03/08 11:08:42;;;;;;;8.45;5.30;;;;;;;;;;5030413;28;20037;-42
2023/03/08 11:11:10;;;;;;;4.45;3.00;;;;;;;;;;5029125;28;20462;-39
2023/03/08 11:13:50;;;;;;;4.47;2.22;;;;;;;;;;5032269;28;20037;-39
2023/03/08 11:16:16;;;;;;;4.90;2.70;;;;;;;;;;5022826;28;20671;-39
2023/03/08 11:18:55;;;;;;;9.05;3.63;;;;;;;;;;5028653;28;20037;-39
2023/03/08 11:21:50;;;;;;;4.68;3.85;;;;;;;;;;5024554;28;20604;-39
2023/03/08 11:24:45;;;;;;;12.77;8.07;;;;;;;;;;5034721;28;20112;-39
2023/03/08 11:27:20;;;;;;;10.00;6.85;;;;;;;;;;5026767;28;20397;-39
2023/03/08 11:29:51;;;;;;;7.82;5.45;;;;;;;;;;5031143;28;20492;-39
2023/03/08 11:32:45;;;;;;;7.55;4.80;;;;;;;;;;5030351;28;20042;-39
2023/03/08 11:35:42;;;;;;;4.97;3.88;;;;;;;;;;5024233;28;20028;-38
2023/03/08 11:38:23;;;;;;;6.65;2.97;;;;;;;;;;5032504;28;20047;-42
2023/03/08 11:41:16;;;;;;;3.97;3.50;;;;;;;;;;5036530;28;20108;-39
2023/03/08 11:44:06;;;;;;;11.05;4.13;;;;;;;;;;5031486;28;20038;-40
2023/03/08 11:46:46;;;;;;;6.25;4.28;;;;;;;;;;5030311;28;20466;-39
2023/03/08 11:49:45;;;;;;;7.70;4.53;;;;;;;;;;5028746;28;20060;-39
2023/03/08 11:52:35;;;;;;;15.13;4.57;;;;;;;;;;5026258;28;20445;-38
2023/03/08 11:55:04;;;;;;;11.27;4.55;;;;;;;;;;5023699;28;20041;-39
2023/03/08 11:57:44;;;;;;;3.70;2.90;;;;;;;;;;5036770;28;20037;-39
2023/03/08 12:00:40;;;;;;;7.13;2.90;;;;;;;;;;5031840;28;20042;-38
2023/03/08 12:03:14;;;;;;;6.95;3.05;;;;;;;;;;5017345;28;20053;-38
2023/03/08 12:05:44;;;;;;;5.80;3.55;;;;;;;;;;5034894;28;20047;-39
2023/03/08 12:08:26;;;;;;;6.03;5.45;;;;;;;;;;5029423;28;20144;-39
2023/03/08 12:11:08;;;;;;;6.45;4.05;;;;;;;;;;5027606;28;20036;-38
2023/03/08 12:13:36;;;;;;;;;;;;;;;;;;5018550;28;20052;-39
2023/03/08 12:16:25;;;;;;;3.85;3.13;;;;;;;;;;5030130;28;19924;-38
2023/03/08 12:19:12;;;;;;;7.38;3.33;;;;;;;;;;5025893;28;20376;-38
2023/03/08 12:22:10;;;;;;;5.88;3.53;;;;;;;;;;5027360;28;20048;-39
2023/03/08 12:24:35;;;;;;;4.97;2.90;;;;;;;;;;5022603;28;20041;-41
2023/03/08 12:27:22;;;;;;;3.85;2.92;;;;;;;;;;5030637;28;20489;-39
2023/03/08 12:30:18;;;;;;;7.00;3.08;;;;;;;;;;5030980;28;20110;-39
2023/03/08 12:32:46;;;;;;;6.45;3.42;;;;;;;;;;5020528;28;20619;-39
2023/03/08 12:35:31;;;;;;;5.75;3.70;;;;;;;;;;5031623;28;20094;-39
2023/03/08 12:37:58;;;;;;;4.32;3.55;;;;;;;;;;5024930;28;20069;-42
2023/03/08 12:40:35;;;;;;;8.65;3.80;;;;;;;;;;5032986;28;20040;-39
2023/03/08 12:43:09;;;;;;;5.13;3.40;;;;;;;;;;5032584;28;20056;-39
2023/03/08 12:45:35;;;;;;;5.38;3.70;;;;;;;;;;5033294;28;20370;-39
2023/03/08 12:48:14;;;;;;;4.72;3.78;;;;;;;;;;5033029;28;20132;-39
2023/03/08 12:50:43;;;;;;;5.07;3.47;;;;;;;;;;5047103;28;20649;-39
2023/03/08 12:53:47;;;;;;;7.22;3.35;;;;;;;;;;5030451;28;20058;-39
2023/03/08 12:56:18;;;;;;;8.05;2.90;;;;;;;;;;5029687;28;20029;-39
2023/03/08 12:58:53;;;;;;;2.55;2.33;;;;;;;;;;5030462;28;20029;-39
2023/03/08 13:01:57;;;;;;;4.15;1.88;;;;;;;;;;5027097;28;20172;-42
2023/03/08 13:04:34;;;;;;;2.70;2.05;;;;;;;;;;4987083;28;20038;-39
2023/03/08 13:07:08;;;;;;;4.97;2.42;;;;;;;;;;4990765;28;20044;-39
2023/03/08 13:09:39;;;;;;;3.78;2.15;;;;;;;;;;4989512;28;20042;-39
2023/03/08 13:12:05;;;;;;;6.03;2.28;;;;;;;;;;4989630;28;20042;-39
2023/03/08 13:14:36;;;;;;;3.72;2.33;;;;;;;;;;4991194;28;20038;-39
2023/03/08 13:17:26;;;;;;;4.72;2.55;;;;;;;;;;4989914;28;20081;-39
2023/03/08 13:19:53;;;;;;;6.10;2.97;;;;;;;;;;4989746;28;20037;-39
2023/03/08 13:22:27;;;;;;;7.65;2.88;;;;;;;;;;4994886;28;20112;-39
2023/03/08 13:25:00;;;;;;;5.20;2.83;;;;;;;;;;4993809;28;20076;-39
2023/03/08 13:27:35;;;;;;;4.22;2.30;;;;;;;;;;4989590;28;20515;-39
2023/03/08 13:30:29;;;;;;;4.43;2.60;;;;;;;;;;4986758;28;20086;-39
2023/03/08 13:32:55;;;;;;;6.93;2.60;;;;;;;;;;4988121;28;20484;-39
2023/03/08 13:35:26;;;;;;;3.67;2.35;;;;;;;;;;5008400;28;20042;-39
2023/03/08 13:37:54;;;;;;;7.37;2.80;;;;;;;;;;5021196;28;20030;-41
2023/03/08 13:40:21;;;;;;;5.38;2.30;;;;;;;;;;5034539;28;20033;-39
2023/03/08 13:42:56;;;;;;;15.60;2.90;;;;;;;;;;5031443;28;20706;-39
2023/03/08 13:45:23;;;;;;;2.55;2.33;;;;;;;;;;5023627;28;20131;-40
2023/03/08 13:47:49;;;;;;;7.78;2.38;;;;;;;;;;5032476;28;21169;-39
2023/03/08 13:50:36;;;;;;;8.43;3.00;;;;;;;;;;5032044;28;20025;-39
2023/03/08 13:53:06;;;;;;;5.22;2.70;;;;;;;;;;5022086;28;20045;-43
2023/03/08 13:55:42;;;;;;;7.60;2.50;;;;;;;;;;5031112;28;20080;-39
2023/03/08 13:58:25;;;;;;;5.15;2.42;;;;;;;;;;5031517;28;20037;-39
2023/03/08 14:01:04;;;;;;;2.58;2.28;;;;;;;;;;5025687;28;20072;-39
2023/03/08 14:03:31;;;;;;;6.60;2.40;;;;;;;;;;5026990;28;20049;-39
2023/03/08 14:05:57;;;;;;;5.43;2.97;;;;;;;;;;5029969;28;20096;-40
2023/03/08 14:08:25;;;;;;;6.60;2.53;;;;;;;;;;5036095;28;20037;-39
2023/03/08 14:10:52;;;;;;;5.15;2.33;;;;;;;;;;5024597;28;20144;-39
2023/03/08 14:13:23;;;;;;;8.05;2.80;;;;;;;;;;5022620;28;20038;-40
2023/03/08 14:15:53;;;;;;;12.77;2.80;;;;;;;;;;5030346;28;20033;-39
2023/03/08 14:18:30;;;;;;;4.30;2.40;;;;;;;;;;5025479;28;20492;-39
2023/03/08 14:21:13;;;;;;;6.47;2.35;;;;;;;;;;5027996;28;20041;-38
2023/03/08 14:23:41;;;;;;;4.45;2.90;;;;;;;;;;5032157;28;20023;-41
2023/03/08 14:26:34;;;;;;;3.60;2.58;;;;;;;;;;5028995;28;20029;-40
2023/03/08 14:29:11;;;;;;;4.75;2.42;;;;;;;;;;5032497;28;20029;-39
2023/03/08 14:31:51;;;;;;;8.18;3.85;;;;;;;;;;5030008;28;20048;-39
2023/03/08 14:34:21;;;;;;;6.68;2.83;;;;;;;;;;5031562;28;20020;-39
2023/03/08 14:36:58;;;;;;;8.63;3.40;;;;;;;;;;5030759;28;20042;-39
2023/03/08 14:39:26;;;;;;;8.88;3.33;;;;;;;;;;5032803;28;20037;-39
2023/03/08 14:41:53;;;;;;;7.18;3.92;;;;;;;;;;5036755;28;20624;-40
2023/03/08 14:44:24;;;;;;;4.93;3.20;;;;;;;;;;5035450;28;20119;-39
2023/03/08 14:47:07;;;;;;;9.77;3.70;;;;;;;;;;5036173;28;20091;-40
2023/03/08 14:49:33;;;;;;;4.57;3.17;;;;;;;;;;5032837;28;20466;-39
2023/03/08 14:52:17;;;;;;;7.25;3.25;;;;;;;;;;5033378;28;20030;-38